Terminal Aerodrome Forecast
Issued by NWS Spokane, WA

Current Version | Previous Version | Text Only | Print | Product List | Glossary On
Versions: 1 2 3 4 5 6 7 8 9 10 11 12 13 14 15 16 17 18 19 20 21 22 23 24 25 26
000
FTUS46 KOTX 280240 AAB
TAFEAT
TAF AMD
KEAT 280240Z 2803/2824 30006KT 3SM BR BCFG SCT002
     FM280500 30008KT P6SM SCT100
     FM281500 30004KT P6SM VCSH BKN040 OVC120
     FM282100 VRB03KT 3SM -SHSN BKN025 OVC040=

USA.gov is the U.S. government's official web portal to all federal, state and local government web resources and services.